sensor_id;sensor_type;location;lat;lon;timestamp;P1;durP1;ratioP1;P2;durP2;ratioP2
8654;SDS011;13500;52.514;13.462;2024-02-16T00:02:05;8.83;;;6.73;;
8654;SDS011;13500;52.514;13.462;2024-02-16T00:04:33;7.93;;;6.93;;
8654;SDS011;13500;52.514;13.462;2024-02-16T00:07:02;8.53;;;7.40;;
8654;SDS011;13500;52.514;13.462;2024-02-16T00:09:30;9.00;;;7.53;;
8654;SDS011;13500;52.514;13.462;2024-02-16T00:11:59;8.43;;;7.53;;
8654;SDS011;13500;52.514;13.462;2024-02-16T00:14:28;10.30;;;7.77;;
8654;SDS011;13500;52.514;13.462;2024-02-16T00:16:56;8.80;;;7.90;;
8654;SDS011;13500;52.514;13.462;2024-02-16T00:19:25;10.00;;;7.77;;
8654;SDS011;13500;52.514;13.462;2024-02-16T00:21:54;8.83;;;7.40;;
8654;SDS011;13500;52.514;13.462;2024-02-16T00:24:22;9.27;;;8.27;;
8654;SDS011;13500;52.514;13.462;2024-02-16T00:26:51;12.70;;;8.60;;
8654;SDS011;13500;52.514;13.462;2024-02-16T00:29:19;10.23;;;8.80;;
8654;SDS011;13500;52.514;13.462;2024-02-16T00:31:47;10.93;;;9.17;;
8654;SDS011;13500;52.514;13.462;2024-02-16T00:34:15;10.00;;;8.87;;
8654;SDS011;13500;52.514;13.462;2024-02-16T00:36:46;10.23;;;8.97;;
8654;SDS011;13500;52.514;13.462;2024-02-16T00:39:14;12.83;;;9.80;;
8654;SDS011;13500;52.514;13.462;2024-02-16T00:41:42;11.90;;;10.03;;
8654;SDS011;13500;52.514;13.462;2024-02-16T00:44:10;12.17;;;9.70;;
8654;SDS011;13500;52.514;13.462;2024-02-16T00:46:38;11.07;;;9.93;;
8654;SDS011;13500;52.514;13.462;2024-02-16T00:49:06;12.93;;;10.47;;
8654;SDS011;13500;52.514;13.462;2024-02-16T00:51:37;11.87;;;10.60;;
8654;SDS011;13500;52.514;13.462;2024-02-16T00:54:06;11.97;;;10.43;;
8654;SDS011;13500;52.514;13.462;2024-02-16T00:56:35;20.13;;;11.90;;
8654;SDS011;13500;52.514;13.462;2024-02-16T00:59:03;13.73;;;11.47;;
8654;SDS011;13500;52.514;13.462;2024-02-16T01:01:31;14.13;;;11.37;;
8654;SDS011;13500;52.514;13.462;2024-02-16T01:03:59;14.03;;;11.63;;
8654;SDS011;13500;52.514;13.462;2024-02-16T01:06:27;12.80;;;11.47;;
8654;SDS011;13500;52.514;13.462;2024-02-16T01:08:55;15.13;;;12.17;;
8654;SDS011;13500;52.514;13.462;2024-02-16T01:11:24;14.03;;;12.20;;
8654;SDS011;13500;52.514;13.462;2024-02-16T01:13:53;13.37;;;11.97;;
8654;SDS011;13500;52.514;13.462;2024-02-16T01:16:21;13.90;;;12.50;;
8654;SDS011;13500;52.514;13.462;2024-02-16T01:18:49;14.37;;;12.00;;
8654;SDS011;13500;52.514;13.462;2024-02-16T01:21:16;13.47;;;12.07;;
8654;SDS011;13500;52.514;13.462;2024-02-16T01:23:44;13.93;;;12.40;;
8654;SDS011;13500;52.514;13.462;2024-02-16T01:26:12;15.47;;;13.00;;
8654;SDS011;13500;52.514;13.462;2024-02-16T01:28:41;14.00;;;12.60;;
8654;SDS011;13500;52.514;13.462;2024-02-16T01:31:09;16.10;;;13.67;;
8654;SDS011;13500;52.514;13.462;2024-02-16T01:33:38;15.23;;;13.63;;
8654;SDS011;13500;52.514;13.462;2024-02-16T01:36:06;15.37;;;13.30;;
8654;SDS011;13500;52.514;13.462;2024-02-16T01:38:34;17.03;;;13.70;;
8654;SDS011;13500;52.514;13.462;2024-02-16T01:41:03;15.30;;;13.27;;
8654;SDS011;13500;52.514;13.462;2024-02-16T01:43:31;15.67;;;13.77;;
8654;SDS011;13500;52.514;13.462;2024-02-16T01:46:00;16.20;;;13.83;;
8654;SDS011;13500;52.514;13.462;2024-02-16T01:48:29;15.70;;;14.07;;
8654;SDS011;13500;52.514;13.462;2024-02-16T01:50:57;17.90;;;14.00;;
8654;SDS011;13500;52.514;13.462;2024-02-16T01:53:27;17.53;;;15.20;;
8654;SDS011;13500;52.514;13.462;2024-02-16T01:55:56;17.43;;;15.10;;
8654;SDS011;13500;52.514;13.462;2024-02-16T01:58:24;19.10;;;14.87;;
8654;SDS011;13500;52.514;13.462;2024-02-16T02:00:53;16.73;;;14.90;;
8654;SDS011;13500;52.514;13.462;2024-02-16T02:03:22;17.00;;;14.73;;
8654;SDS011;13500;52.514;13.462;2024-02-16T02:05:51;17.77;;;15.63;;
8654;SDS011;13500;52.514;13.462;2024-02-16T02:08:21;18.13;;;16.03;;
8654;SDS011;13500;52.514;13.462;2024-02-16T02:10:49;18.40;;;16.23;;
8654;SDS011;13500;52.514;13.462;2024-02-16T02:13:17;18.80;;;16.80;;
8654;SDS011;13500;52.514;13.462;2024-02-16T02:15:46;19.13;;;16.87;;
8654;SDS011;13500;52.514;13.462;2024-02-16T02:18:14;20.93;;;17.20;;
8654;SDS011;13500;52.514;13.462;2024-02-16T02:20:43;19.03;;;16.93;;
8654;SDS011;13500;52.514;13.462;2024-02-16T02:23:13;19.73;;;17.73;;
8654;SDS011;13500;52.514;13.462;2024-02-16T02:25:41;19.63;;;17.50;;
8654;SDS011;13500;52.514;13.462;2024-02-16T02:28:09;19.90;;;17.80;;
8654;SDS011;13500;52.514;13.462;2024-02-16T02:30:37;21.50;;;17.23;;
8654;SDS011;13500;52.514;13.462;2024-02-16T02:33:05;23.47;;;18.40;;
8654;SDS011;13500;52.514;13.462;2024-02-16T02:35:36;20.10;;;18.00;;
8654;SDS011;13500;52.514;13.462;2024-02-16T02:38:04;22.13;;;18.90;;
8654;SDS011;13500;52.514;13.462;2024-02-16T02:40:33;20.60;;;18.40;;
8654;SDS011;13500;52.514;13.462;2024-02-16T02:43:01;20.53;;;18.33;;
8654;SDS011;13500;52.514;13.462;2024-02-16T02:45:30;21.43;;;18.53;;
8654;SDS011;13500;52.514;13.462;2024-02-16T02:47:58;21.50;;;17.73;;
8654;SDS011;13500;52.514;13.462;2024-02-16T02:50:26;20.93;;;18.13;;
8654;SDS011;13500;52.514;13.462;2024-02-16T02:52:54;21.63;;;18.33;;
8654;SDS011;13500;52.514;13.462;2024-02-16T02:55:22;21.90;;;17.63;;
8654;SDS011;13500;52.514;13.462;2024-02-16T02:57:52;21.20;;;18.20;;
8654;SDS011;13500;52.514;13.462;2024-02-16T03:00:20;20.53;;;17.80;;
8654;SDS011;13500;52.514;13.462;2024-02-16T03:02:48;20.57;;;18.37;;
8654;SDS011;13500;52.514;13.462;2024-02-16T03:05:16;22.73;;;18.33;;
8654;SDS011;13500;52.514;13.462;2024-02-16T03:07:46;20.03;;;17.93;;
8654;SDS011;13500;52.514;13.462;2024-02-16T03:10:14;19.53;;;17.43;;
8654;SDS011;13500;52.514;13.462;2024-02-16T03:12:47;20.67;;;17.60;;
8654;SDS011;13500;52.514;13.462;2024-02-16T03:15:18;20.30;;;18.20;;
8654;SDS011;13500;52.514;13.462;2024-02-16T03:17:46;20.20;;;18.17;;
8654;SDS011;13500;52.514;13.462;2024-02-16T03:20:14;18.77;;;16.87;;
8654;SDS011;13500;52.514;13.462;2024-02-16T03:22:43;20.40;;;17.13;;
8654;SDS011;13500;52.514;13.462;2024-02-16T03:25:11;21.10;;;16.63;;
8654;SDS011;13500;52.514;13.462;2024-02-16T03:27:39;18.27;;;16.23;;
8654;SDS011;13500;52.514;13.462;2024-02-16T03:30:07;17.57;;;15.77;;
8654;SDS011;13500;52.514;13.462;2024-02-16T03:32:38;22.70;;;17.23;;
8654;SDS011;13500;52.514;13.462;2024-02-16T03:35:07;20.17;;;16.53;;
8654;SDS011;13500;52.514;13.462;2024-02-16T03:37:35;18.13;;;16.23;;
8654;SDS011;13500;52.514;13.462;2024-02-16T03:40:04;17.40;;;14.97;;
8654;SDS011;13500;52.514;13.462;2024-02-16T03:42:34;17.87;;;15.93;;
8654;SDS011;13500;52.514;13.462;2024-02-16T03:45:02;17.60;;;15.57;;
8654;SDS011;13500;52.514;13.462;2024-02-16T03:47:30;17.93;;;15.80;;
8654;SDS011;13500;52.514;13.462;2024-02-16T03:50:00;23.20;;;16.77;;
8654;SDS011;13500;52.514;13.462;2024-02-16T03:52:28;19.97;;;16.33;;
8654;SDS011;13500;52.514;13.462;2024-02-16T03:54:57;19.63;;;16.87;;
8654;SDS011;13500;52.514;13.462;2024-02-16T03:57:25;19.77;;;16.17;;
8654;SDS011;13500;52.514;13.462;2024-02-16T03:59:53;17.40;;;15.20;;
8654;SDS011;13500;52.514;13.462;2024-02-16T04:02:22;19.87;;;16.40;;
8654;SDS011;13500;52.514;13.462;2024-02-16T04:04:52;18.00;;;15.57;;
8654;SDS011;13500;52.514;13.462;2024-02-16T04:07:21;16.97;;;15.03;;
8654;SDS011;13500;52.514;13.462;2024-02-16T04:09:49;19.03;;;14.93;;
8654;SDS011;13500;52.514;13.462;2024-02-16T04:12:17;18.13;;;15.20;;
8654;SDS011;13500;52.514;13.462;2024-02-16T04:14:45;16.57;;;14.73;;
8654;SDS011;13500;52.514;13.462;2024-02-16T04:17:13;16.90;;;15.10;;
8654;SDS011;13500;52.514;13.462;2024-02-16T04:19:41;18.13;;;15.37;;
8654;SDS011;13500;52.514;13.462;2024-02-16T04:22:10;18.50;;;15.27;;
8654;SDS011;13500;52.514;13.462;2024-02-16T04:24:39;19.40;;;15.53;;
8654;SDS011;13500;52.514;13.462;2024-02-16T04:27:07;20.17;;;15.83;;
8654;SDS011;13500;52.514;13.462;2024-02-16T04:29:35;18.87;;;15.73;;
8654;SDS011;13500;52.514;13.462;2024-02-16T04:32:04;18.10;;;14.70;;
8654;SDS011;13500;52.514;13.462;2024-02-16T04:34:32;17.30;;;14.93;;
8654;SDS011;13500;52.514;13.462;2024-02-16T04:37:00;16.73;;;14.53;;
8654;SDS011;13500;52.514;13.462;2024-02-16T04:39:28;18.60;;;14.83;;
8654;SDS011;13500;52.514;13.462;2024-02-16T04:41:58;18.03;;;14.60;;
8654;SDS011;13500;52.514;13.462;2024-02-16T04:44:26;18.60;;;15.00;;
8654;SDS011;13500;52.514;13.462;2024-02-16T04:46:54;16.50;;;14.67;;
8654;SDS011;13500;52.514;13.462;2024-02-16T04:49:22;17.47;;;14.47;;
8654;SDS011;13500;52.514;13.462;2024-02-16T04:51:51;17.20;;;14.37;;
8654;SDS011;13500;52.514;13.462;2024-02-16T04:54:19;18.53;;;14.97;;
8654;SDS011;13500;52.514;13.462;2024-02-16T04:56:47;15.53;;;13.90;;
8654;SDS011;13500;52.514;13.462;2024-02-16T04:59:16;15.70;;;13.87;;
8654;SDS011;13500;52.514;13.462;2024-02-16T05:01:45;18.97;;;14.63;;
8654;SDS011;13500;52.514;13.462;2024-02-16T05:04:13;18.37;;;14.67;;
8654;SDS011;13500;52.514;13.462;2024-02-16T05:06:44;16.97;;;14.07;;
8654;SDS011;13500;52.514;13.462;2024-02-16T05:09:13;18.60;;;13.27;;
8654;SDS011;13500;52.514;13.462;2024-02-16T05:11:43;16.93;;;13.90;;
8654;SDS011;13500;52.514;13.462;2024-02-16T05:14:12;16.90;;;14.17;;
8654;SDS011;13500;52.514;13.462;2024-02-16T05:16:43;18.67;;;14.03;;
8654;SDS011;13500;52.514;13.462;2024-02-16T05:19:12;16.37;;;13.50;;
8654;SDS011;13500;52.514;13.462;2024-02-16T05:21:40;15.23;;;13.10;;
8654;SDS011;13500;52.514;13.462;2024-02-16T05:24:08;15.60;;;13.40;;
8654;SDS011;13500;52.514;13.462;2024-02-16T05:26:36;14.17;;;12.50;;
8654;SDS011;13500;52.514;13.462;2024-02-16T05:29:04;16.03;;;12.90;;
8654;SDS011;13500;52.514;13.462;2024-02-16T05:31:32;16.30;;;12.77;;
8654;SDS011;13500;52.514;13.462;2024-02-16T05:34:01;15.67;;;13.13;;
8654;SDS011;13500;52.514;13.462;2024-02-16T05:36:30;17.67;;;12.70;;
8654;SDS011;13500;52.514;13.462;2024-02-16T05:39:02;14.37;;;12.83;;
8654;SDS011;13500;52.514;13.462;2024-02-16T05:41:46;13.80;;;12.30;;
8654;SDS011;13500;52.514;13.462;2024-02-16T05:44:15;13.03;;;11.70;;
8654;SDS011;13500;52.514;13.462;2024-02-16T05:46:44;13.27;;;11.87;;
8654;SDS011;13500;52.514;13.462;2024-02-16T05:49:13;13.67;;;11.80;;
8654;SDS011;13500;52.514;13.462;2024-02-16T05:51:41;16.00;;;11.70;;
8654;SDS011;13500;52.514;13.462;2024-02-16T05:54:26;16.07;;;11.70;;
8654;SDS011;13500;52.514;13.462;2024-02-16T05:56:55;11.93;;;10.73;;
8654;SDS011;13500;52.514;13.462;2024-02-16T05:59:23;12.97;;;11.20;;
8654;SDS011;13500;52.514;13.462;2024-02-16T06:01:53;12.27;;;10.97;;
8654;SDS011;13500;52.514;13.462;2024-02-16T06:04:22;14.50;;;11.80;;
8654;SDS011;13500;52.514;13.462;2024-02-16T06:06:50;16.57;;;12.07;;
8654;SDS011;13500;52.514;13.462;2024-02-16T06:09:20;14.50;;;11.83;;
8654;SDS011;13500;52.514;13.462;2024-02-16T06:11:48;14.67;;;11.17;;
8654;SDS011;13500;52.514;13.462;2024-02-16T06:14:16;12.37;;;11.07;;
8654;SDS011;13500;52.514;13.462;2024-02-16T06:16:46;13.10;;;11.33;;
8654;SDS011;13500;52.514;13.462;2024-02-16T06:19:14;13.97;;;11.60;;
8654;SDS011;13500;52.514;13.462;2024-02-16T06:21:43;15.57;;;12.10;;
8654;SDS011;13500;52.514;13.462;2024-02-16T06:24:11;14.70;;;11.57;;
8654;SDS011;13500;52.514;13.462;2024-02-16T06:26:39;15.97;;;12.10;;
8654;SDS011;13500;52.514;13.462;2024-02-16T06:29:07;14.93;;;12.33;;
8654;SDS011;13500;52.514;13.462;2024-02-16T06:31:35;16.50;;;11.87;;
8654;SDS011;13500;52.514;13.462;2024-02-16T06:34:03;14.30;;;11.27;;
8654;SDS011;13500;52.514;13.462;2024-02-16T06:36:31;16.77;;;10.90;;
8654;SDS011;13500;52.514;13.462;2024-02-16T06:39:00;14.27;;;10.83;;
8654;SDS011;13500;52.514;13.462;2024-02-16T06:41:29;13.30;;;10.33;;
8654;SDS011;13500;52.514;13.462;2024-02-16T06:43:57;15.67;;;11.27;;
8654;SDS011;13500;52.514;13.462;2024-02-16T06:46:25;16.97;;;11.63;;
8654;SDS011;13500;52.514;13.462;2024-02-16T06:48:55;14.90;;;10.93;;
8654;SDS011;13500;52.514;13.462;2024-02-16T06:51:24;16.10;;;11.53;;
8654;SDS011;13500;52.514;13.462;2024-02-16T06:53:53;14.80;;;10.90;;
8654;SDS011;13500;52.514;13.462;2024-02-16T06:56:22;14.17;;;10.57;;
8654;SDS011;13500;52.514;13.462;2024-02-16T06:58:50;14.20;;;11.23;;
8654;SDS011;13500;52.514;13.462;2024-02-16T07:01:18;14.10;;;11.47;;
8654;SDS011;13500;52.514;13.462;2024-02-16T07:03:46;13.70;;;11.03;;
8654;SDS011;13500;52.514;13.462;2024-02-16T07:06:14;13.73;;;10.67;;
8654;SDS011;13500;52.514;13.462;2024-02-16T07:08:43;15.10;;;11.33;;
8654;SDS011;13500;52.514;13.462;2024-02-16T07:11:11;13.87;;;11.13;;
8654;SDS011;13500;52.514;13.462;2024-02-16T07:13:41;17.77;;;11.73;;
8654;SDS011;13500;52.514;13.462;2024-02-16T07:16:10;16.10;;;10.93;;
8654;SDS011;13500;52.514;13.462;2024-02-16T07:18:38;15.93;;;11.20;;
8654;SDS011;13500;52.514;13.462;2024-02-16T07:21:06;13.47;;;11.23;;
8654;SDS011;13500;52.514;13.462;2024-02-16T07:23:35;14.60;;;10.93;;
8654;SDS011;13500;52.514;13.462;2024-02-16T07:26:03;16.37;;;11.97;;
8654;SDS011;13500;52.514;13.462;2024-02-16T07:28:33;13.40;;;11.23;;
8654;SDS011;13500;52.514;13.462;2024-02-16T07:31:03;11.13;;;9.80;;
8654;SDS011;13500;52.514;13.462;2024-02-16T07:33:31;11.57;;;9.10;;
8654;SDS011;13500;52.514;13.462;2024-02-16T07:35:59;11.60;;;9.83;;
8654;SDS011;13500;52.514;13.462;2024-02-16T07:38:27;10.87;;;9.30;;
8654;SDS011;13500;52.514;13.462;2024-02-16T07:40:55;11.87;;;9.60;;
8654;SDS011;13500;52.514;13.462;2024-02-16T07:43:23;11.30;;;9.17;;
8654;SDS011;13500;52.514;13.462;2024-02-16T07:45:51;11.73;;;10.53;;
8654;SDS011;13500;52.514;13.462;2024-02-16T07:48:22;11.87;;;10.23;;
8654;SDS011;13500;52.514;13.462;2024-02-16T07:50:50;11.03;;;9.93;;
8654;SDS011;13500;52.514;13.462;2024-02-16T07:53:18;10.50;;;9.40;;
8654;SDS011;13500;52.514;13.462;2024-02-16T07:55:46;12.50;;;9.27;;
8654;SDS011;13500;52.514;13.462;2024-02-16T07:58:14;10.53;;;9.33;;
8654;SDS011;13500;52.514;13.462;2024-02-16T08:00:42;10.70;;;9.43;;
8654;SDS011;13500;52.514;13.462;2024-02-16T08:03:10;11.13;;;9.60;;
8654;SDS011;13500;52.514;13.462;2024-02-16T08:05:40;11.30;;;8.83;;
8654;SDS011;13500;52.514;13.462;2024-02-16T08:08:07;9.60;;;8.70;;
8654;SDS011;13500;52.514;13.462;2024-02-16T08:10:35;9.83;;;8.83;;
8654;SDS011;13500;52.514;13.462;2024-02-16T08:13:03;9.77;;;8.77;;
8654;SDS011;13500;52.514;13.462;2024-02-16T08:15:31;10.50;;;8.50;;
8654;SDS011;13500;52.514;13.462;2024-02-16T08:17:59;8.40;;;7.60;;
8654;SDS011;13500;52.514;13.462;2024-02-16T08:20:28;9.20;;;8.30;;
8654;SDS011;13500;52.514;13.462;2024-02-16T08:22:57;9.40;;;8.50;;
8654;SDS011;13500;52.514;13.462;2024-02-16T08:25:26;9.40;;;8.60;;
8654;SDS011;13500;52.514;13.462;2024-02-16T08:27:56;9.40;;;8.50;;
8654;SDS011;13500;52.514;13.462;2024-02-16T08:30:24;10.50;;;8.77;;
8654;SDS011;13500;52.514;13.462;2024-02-16T08:32:52;9.37;;;8.40;;
8654;SDS011;13500;52.514;13.462;2024-02-16T08:35:21;9.40;;;8.50;;
8654;SDS011;13500;52.514;13.462;2024-02-16T08:37:49;9.40;;;8.20;;
8654;SDS011;13500;52.514;13.462;2024-02-16T08:40:19;9.70;;;8.70;;
8654;SDS011;13500;52.514;13.462;2024-02-16T08:42:47;8.50;;;7.70;;
8654;SDS011;13500;52.514;13.462;2024-02-16T08:45:15;8.27;;;7.47;;
8654;SDS011;13500;52.514;13.462;2024-02-16T08:47:44;8.73;;;7.37;;
8654;SDS011;13500;52.514;13.462;2024-02-16T08:50:17;8.53;;;7.40;;
8654;SDS011;13500;52.514;13.462;2024-02-16T08:52:45;9.70;;;8.70;;
8654;SDS011;13500;52.514;13.462;2024-02-16T08:55:13;9.87;;;8.57;;
8654;SDS011;13500;52.514;13.462;2024-02-16T08:57:42;8.73;;;7.83;;
8654;SDS011;13500;52.514;13.462;2024-02-16T09:00:12;11.90;;;7.87;;
8654;SDS011;13500;52.514;13.462;2024-02-16T09:02:41;9.53;;;8.50;;
8654;SDS011;13500;52.514;13.462;2024-02-16T09:05:10;10.83;;;8.17;;
8654;SDS011;13500;52.514;13.462;2024-02-16T09:07:38;12.70;;;8.63;;
8654;SDS011;13500;52.514;13.462;2024-02-16T09:10:06;12.33;;;8.47;;
8654;SDS011;13500;52.514;13.462;2024-02-16T09:12:35;11.20;;;9.20;;
8654;SDS011;13500;52.514;13.462;2024-02-16T09:15:05;12.13;;;8.60;;
8654;SDS011;13500;52.514;13.462;2024-02-16T09:17:35;11.53;;;8.87;;
8654;SDS011;13500;52.514;13.462;2024-02-16T09:20:03;9.23;;;8.30;;
8654;SDS011;13500;52.514;13.462;2024-02-16T09:22:35;12.00;;;8.93;;
8654;SDS011;13500;52.514;13.462;2024-02-16T09:25:04;10.90;;;8.73;;
8654;SDS011;13500;52.514;13.462;2024-02-16T09:27:33;16.13;;;9.37;;
8654;SDS011;13500;52.514;13.462;2024-02-16T09:30:01;13.07;;;8.63;;
8654;SDS011;13500;52.514;13.462;2024-02-16T09:32:31;10.07;;;8.93;;
8654;SDS011;13500;52.514;13.462;2024-02-16T09:34:59;11.37;;;8.60;;
8654;SDS011;13500;52.514;13.462;2024-02-16T09:37:27;11.07;;;9.07;;
8654;SDS011;13500;52.514;13.462;2024-02-16T09:39:55;13.50;;;8.40;;
8654;SDS011;13500;52.514;13.462;2024-02-16T09:42:23;11.20;;;8.70;;
8654;SDS011;13500;52.514;13.462;2024-02-16T09:44:52;13.27;;;8.77;;
8654;SDS011;13500;52.514;13.462;2024-02-16T09:47:22;11.40;;;8.23;;
8654;SDS011;13500;52.514;13.462;2024-02-16T09:49:53;12.70;;;8.50;;
8654;SDS011;13500;52.514;13.462;2024-02-16T09:52:22;9.67;;;7.77;;
8654;SDS011;13500;52.514;13.462;2024-02-16T09:54:50;10.13;;;9.03;;
8654;SDS011;13500;52.514;13.462;2024-02-16T09:57:18;11.73;;;9.63;;
8654;SDS011;13500;52.514;13.462;2024-02-16T09:59:47;10.23;;;8.57;;
8654;SDS011;13500;52.514;13.462;2024-02-16T10:02:15;11.17;;;8.13;;
8654;SDS011;13500;52.514;13.462;2024-02-16T10:04:43;16.13;;;10.90;;
8654;SDS011;13500;52.514;13.462;2024-02-16T10:07:13;10.73;;;9.63;;
8654;SDS011;13500;52.514;13.462;2024-02-16T10:09:41;11.73;;;10.10;;
8654;SDS011;13500;52.514;13.462;2024-02-16T10:12:09;10.40;;;8.03;;
8654;SDS011;13500;52.514;13.462;2024-02-16T10:14:38;9.23;;;7.37;;
8654;SDS011;13500;52.514;13.462;2024-02-16T10:17:07;8.77;;;7.07;;
8654;SDS011;13500;52.514;13.462;2024-02-16T10:19:36;7.63;;;6.83;;
8654;SDS011;13500;52.514;13.462;2024-02-16T10:22:08;7.83;;;6.90;;
8654;SDS011;13500;52.514;13.462;2024-02-16T10:24:38;8.70;;;6.70;;
8654;SDS011;13500;52.514;13.462;2024-02-16T10:27:13;7.07;;;6.37;;
8654;SDS011;13500;52.514;13.462;2024-02-16T10:29:43;12.60;;;6.70;;
8654;SDS011;13500;52.514;13.462;2024-02-16T10:32:12;8.20;;;6.07;;
8654;SDS011;13500;52.514;13.462;2024-02-16T10:34:40;8.70;;;6.07;;
8654;SDS011;13500;52.514;13.462;2024-02-16T10:37:09;6.80;;;5.87;;
8654;SDS011;13500;52.514;13.462;2024-02-16T10:39:38;8.60;;;5.97;;
8654;SDS011;13500;52.514;13.462;2024-02-16T10:42:08;6.90;;;5.97;;
8654;SDS011;13500;52.514;13.462;2024-02-16T10:44:37;7.00;;;5.83;;
8654;SDS011;13500;52.514;13.462;2024-02-16T10:47:06;6.63;;;5.60;;
8654;SDS011;13500;52.514;13.462;2024-02-16T10:49:35;9.57;;;5.63;;
8654;SDS011;13500;52.514;13.462;2024-02-16T10:52:04;7.60;;;5.77;;
8654;SDS011;13500;52.514;13.462;2024-02-16T10:54:33;8.97;;;5.93;;
8654;SDS011;13500;52.514;13.462;2024-02-16T10:57:07;10.07;;;5.97;;
8654;SDS011;13500;52.514;13.462;2024-02-16T10:59:40;7.00;;;5.73;;
8654;SDS011;13500;52.514;13.462;2024-02-16T11:02:10;6.57;;;5.87;;
8654;SDS011;13500;52.514;13.462;2024-02-16T11:04:39;10.13;;;5.57;;
8654;SDS011;13500;52.514;13.462;2024-02-16T11:07:11;6.37;;;5.73;;
8654;SDS011;13500;52.514;13.462;2024-02-16T11:09:39;7.53;;;5.23;;
8654;SDS011;13500;52.514;13.462;2024-02-16T11:12:11;10.50;;;6.17;;
8654;SDS011;13500;52.514;13.462;2024-02-16T11:14:42;6.37;;;5.50;;
8654;SDS011;13500;52.514;13.462;2024-02-16T11:17:11;7.17;;;5.90;;
8654;SDS011;13500;52.514;13.462;2024-02-16T11:19:40;9.93;;;6.10;;
8654;SDS011;13500;52.514;13.462;2024-02-16T11:22:09;8.50;;;5.93;;
8654;SDS011;13500;52.514;13.462;2024-02-16T11:24:42;7.73;;;5.70;;
8654;SDS011;13500;52.514;13.462;2024-02-16T11:27:12;9.13;;;5.90;;
8654;SDS011;13500;52.514;13.462;2024-02-16T11:29:42;6.17;;;5.57;;
8654;SDS011;13500;52.514;13.462;2024-02-16T11:32:10;6.90;;;6.23;;
8654;SDS011;13500;52.514;13.462;2024-02-16T11:34:38;7.33;;;5.77;;
8654;SDS011;13500;52.514;13.462;2024-02-16T11:37:07;6.27;;;5.40;;
8654;SDS011;13500;52.514;13.462;2024-02-16T11:39:35;8.37;;;7.53;;
8654;SDS011;13500;52.514;13.462;2024-02-16T11:42:05;8.20;;;6.40;;
8654;SDS011;13500;52.514;13.462;2024-02-16T11:44:36;8.70;;;7.00;;
8654;SDS011;13500;52.514;13.462;2024-02-16T11:47:06;11.10;;;9.70;;
8654;SDS011;13500;52.514;13.462;2024-02-16T11:49:38;9.00;;;8.10;;
8654;SDS011;13500;52.514;13.462;2024-02-16T11:52:07;10.20;;;7.70;;
8654;SDS011;13500;52.514;13.462;2024-02-16T11:54:36;13.30;;;11.37;;
8654;SDS011;13500;52.514;13.462;2024-02-16T11:57:04;8.63;;;7.43;;
8654;SDS011;13500;52.514;13.462;2024-02-16T11:59:32;13.03;;;8.23;;
8654;SDS011;13500;52.514;13.462;2024-02-16T12:02:02;11.17;;;8.87;;
8654;SDS011;13500;52.514;13.462;2024-02-16T12:04:30;9.83;;;5.57;;
8654;SDS011;13500;52.514;13.462;2024-02-16T12:07:06;4.80;;;4.23;;
8654;SDS011;13500;52.514;13.462;2024-02-16T12:09:34;4.77;;;3.77;;
8654;SDS011;13500;52.514;13.462;2024-02-16T12:12:04;6.50;;;4.60;;
8654;SDS011;13500;52.514;13.462;2024-02-16T12:14:33;4.20;;;3.80;;
8654;SDS011;13500;52.514;13.462;2024-02-16T12:17:05;7.37;;;6.50;;
8654;SDS011;13500;52.514;13.462;2024-02-16T12:19:34;6.43;;;4.50;;
8654;SDS011;13500;52.514;13.462;2024-02-16T12:22:03;6.50;;;3.77;;
8654;SDS011;13500;52.514;13.462;2024-02-16T12:24:32;4.93;;;3.90;;
8654;SDS011;13500;52.514;13.462;2024-02-16T12:27:00;8.73;;;4.87;;
8654;SDS011;13500;52.514;13.462;2024-02-16T12:29:29;4.03;;;3.50;;
8654;SDS011;13500;52.514;13.462;2024-02-16T12:31:57;4.40;;;3.57;;
8654;SDS011;13500;52.514;13.462;2024-02-16T12:34:27;5.90;;;4.27;;
8654;SDS011;13500;52.514;13.462;2024-02-16T12:36:55;4.33;;;3.50;;
8654;SDS011;13500;52.514;13.462;2024-02-16T12:39:23;4.17;;;3.77;;
8654;SDS011;13500;52.514;13.462;2024-02-16T12:41:51;6.70;;;3.53;;
8654;SDS011;13500;52.514;13.462;2024-02-16T12:44:19;5.17;;;4.30;;
8654;SDS011;13500;52.514;13.462;2024-02-16T12:46:48;7.13;;;3.73;;
8654;SDS011;13500;52.514;13.462;2024-02-16T12:49:16;4.10;;;3.70;;
8654;SDS011;13500;52.514;13.462;2024-02-16T12:51:49;5.17;;;4.23;;
8654;SDS011;13500;52.514;13.462;2024-02-16T12:54:18;6.17;;;4.20;;
8654;SDS011;13500;52.514;13.462;2024-02-16T12:56:46;4.27;;;3.50;;
8654;SDS011;13500;52.514;13.462;2024-02-16T12:59:14;6.20;;;3.90;;
8654;SDS011;13500;52.514;13.462;2024-02-16T13:01:43;4.23;;;3.83;;
8654;SDS011;13500;52.514;13.462;2024-02-16T13:04:12;4.53;;;3.53;;
8654;SDS011;13500;52.514;13.462;2024-02-16T13:06:47;4.00;;;3.37;;
8654;SDS011;13500;52.514;13.462;2024-02-16T13:09:18;3.83;;;3.50;;
8654;SDS011;13500;52.514;13.462;2024-02-16T13:11:46;7.67;;;3.33;;
8654;SDS011;13500;52.514;13.462;2024-02-16T13:14:21;5.23;;;3.63;;
8654;SDS011;13500;52.514;13.462;2024-02-16T13:16:49;4.80;;;3.47;;
8654;SDS011;13500;52.514;13.462;2024-02-16T13:19:17;4.50;;;3.30;;
8654;SDS011;13500;52.514;13.462;2024-02-16T13:21:45;4.93;;;3.43;;
8654;SDS011;13500;52.514;13.462;2024-02-16T13:24:14;5.60;;;3.37;;
8654;SDS011;13500;52.514;13.462;2024-02-16T13:26:44;3.73;;;3.03;;
8654;SDS011;13500;52.514;13.462;2024-02-16T13:29:12;4.73;;;3.13;;
8654;SDS011;13500;52.514;13.462;2024-02-16T13:31:40;6.40;;;3.33;;
8654;SDS011;13500;52.514;13.462;2024-02-16T13:34:09;6.37;;;3.30;;
8654;SDS011;13500;52.514;13.462;2024-02-16T13:36:37;9.27;;;3.30;;
8654;SDS011;13500;52.514;13.462;2024-02-16T13:39:05;4.30;;;3.33;;
8654;SDS011;13500;52.514;13.462;2024-02-16T13:41:34;4.23;;;3.03;;
8654;SDS011;13500;52.514;13.462;2024-02-16T13:44:03;5.30;;;3.03;;
8654;SDS011;13500;52.514;13.462;2024-02-16T13:46:31;6.23;;;2.93;;
8654;SDS011;13500;52.514;13.462;2024-02-16T13:48:59;3.83;;;2.93;;
8654;SDS011;13500;52.514;13.462;2024-02-16T13:51:28;5.97;;;2.93;;
8654;SDS011;13500;52.514;13.462;2024-02-16T13:53:56;3.90;;;3.00;;
8654;SDS011;13500;52.514;13.462;2024-02-16T13:56:24;4.13;;;2.83;;
8654;SDS011;13500;52.514;13.462;2024-02-16T13:58:52;4.63;;;2.83;;
8654;SDS011;13500;52.514;13.462;2024-02-16T14:01:21;3.17;;;2.70;;
8654;SDS011;13500;52.514;13.462;2024-02-16T14:03:49;3.43;;;2.90;;
8654;SDS011;13500;52.514;13.462;2024-02-16T14:06:18;4.47;;;2.93;;
8654;SDS011;13500;52.514;13.462;2024-02-16T14:08:47;4.27;;;2.90;;
8654;SDS011;13500;52.514;13.462;2024-02-16T14:11:15;4.40;;;2.60;;
8654;SDS011;13500;52.514;13.462;2024-02-16T14:13:43;3.73;;;2.90;;
8654;SDS011;13500;52.514;13.462;2024-02-16T14:16:11;3.57;;;2.93;;
8654;SDS011;13500;52.514;13.462;2024-02-16T14:18:40;4.10;;;3.30;;
8654;SDS011;13500;52.514;13.462;2024-02-16T14:21:09;5.70;;;2.70;;
8654;SDS011;13500;52.514;13.462;2024-02-16T14:23:39;4.87;;;2.83;;
8654;SDS011;13500;52.514;13.462;2024-02-16T14:26:07;3.63;;;2.73;;
8654;SDS011;13500;52.514;13.462;2024-02-16T14:28:35;6.23;;;2.60;;
8654;SDS011;13500;52.514;13.462;2024-02-16T14:31:03;3.90;;;2.87;;
8654;SDS011;13500;52.514;13.462;2024-02-16T14:33:32;2.83;;;2.50;;
8654;SDS011;13500;52.514;13.462;2024-02-16T14:36:02;4.30;;;3.03;;
8654;SDS011;13500;52.514;13.462;2024-02-16T14:38:31;4.63;;;3.00;;
8654;SDS011;13500;52.514;13.462;2024-02-16T14:40:59;6.57;;;3.07;;
8654;SDS011;13500;52.514;13.462;2024-02-16T14:43:30;4.63;;;2.87;;